sensor_id;sensor_type;location;lat;lon;timestamp;P1;durP1;ratioP1;P2;durP2;ratioP2
27618;SDS011;15039;50.830;4.730;2023-03-15T00:01:55;7.95;;;3.42;;
27618;SDS011;15039;50.830;4.730;2023-03-15T00:04:21;6.60;;;3.40;;
27618;SDS011;15039;50.830;4.730;2023-03-15T00:06:48;7.38;;;3.67;;
27618;SDS011;15039;50.830;4.730;2023-03-15T00:09:14;7.38;;;3.15;;
27618;SDS011;15039;50.830;4.730;2023-03-15T00:11:40;5.75;;;3.40;;
27618;SDS011;15039;50.830;4.730;2023-03-15T00:14:06;7.20;;;3.40;;
27618;SDS011;15039;50.830;4.730;2023-03-15T00:16:32;6.93;;;3.17;;
27618;SDS011;15039;50.830;4.730;2023-03-15T00:18:58;7.57;;;4.25;;
27618;SDS011;15039;50.830;4.730;2023-03-15T00:21:24;7.53;;;4.50;;
27618;SDS011;15039;50.830;4.730;2023-03-15T00:23:49;8.00;;;4.35;;
27618;SDS011;15039;50.830;4.730;2023-03-15T00:26:15;6.50;;;4.68;;
27618;SDS011;15039;50.830;4.730;2023-03-15T00:28:41;9.00;;;4.95;;
27618;SDS011;15039;50.830;4.730;2023-03-15T00:31:17;8.35;;;4.75;;
27618;SDS011;15039;50.830;4.730;2023-03-15T00:33:45;5.63;;;4.15;;
27618;SDS011;15039;50.830;4.730;2023-03-15T00:36:11;11.25;;;4.45;;
27618;SDS011;15039;50.830;4.730;2023-03-15T00:38:38;6.90;;;4.00;;
27618;SDS011;15039;50.830;4.730;2023-03-15T00:43:32;10.23;;;5.05;;
27618;SDS011;15039;50.830;4.730;2023-03-15T00:45:58;8.15;;;4.63;;
27618;SDS011;15039;50.830;4.730;2023-03-15T00:48:24;7.82;;;4.38;;
27618;SDS011;15039;50.830;4.730;2023-03-15T00:50:50;6.60;;;4.80;;
27618;SDS011;15039;50.830;4.730;2023-03-15T00:53:15;11.43;;;4.78;;
27618;SDS011;15039;50.830;4.730;2023-03-15T00:55:41;7.43;;;4.10;;
27618;SDS011;15039;50.830;4.730;2023-03-15T00:58:07;10.07;;;4.95;;
27618;SDS011;15039;50.830;4.730;2023-03-15T01:00:33;8.57;;;4.40;;
27618;SDS011;15039;50.830;4.730;2023-03-15T01:02:58;11.52;;;4.88;;
27618;SDS011;15039;50.830;4.730;2023-03-15T01:05:24;4.38;;;3.90;;
27618;SDS011;15039;50.830;4.730;2023-03-15T01:07:51;9.55;;;3.95;;
27618;SDS011;15039;50.830;4.730;2023-03-15T01:10:17;8.23;;;4.28;;
27618;SDS011;15039;50.830;4.730;2023-03-15T01:12:43;10.35;;;3.85;;
27618;SDS011;15039;50.830;4.730;2023-03-15T01:15:10;7.55;;;3.53;;
27618;SDS011;15039;50.830;4.730;2023-03-15T01:17:37;6.75;;;3.63;;
27618;SDS011;15039;50.830;4.730;2023-03-15T01:20:03;5.82;;;2.88;;
27618;SDS011;15039;50.830;4.730;2023-03-15T01:22:29;3.63;;;2.25;;
27618;SDS011;15039;50.830;4.730;2023-03-15T01:24:55;5.40;;;2.63;;
27618;SDS011;15039;50.830;4.730;2023-03-15T01:27:21;6.43;;;2.50;;
27618;SDS011;15039;50.830;4.730;2023-03-15T01:29:46;7.40;;;3.03;;
27618;SDS011;15039;50.830;4.730;2023-03-15T01:32:12;3.45;;;1.70;;
27618;SDS011;15039;50.830;4.730;2023-03-15T01:34:38;1.80;;;1.27;;
27618;SDS011;15039;50.830;4.730;2023-03-15T01:37:03;2.60;;;1.50;;
27618;SDS011;15039;50.830;4.730;2023-03-15T01:39:29;1.70;;;1.05;;
27618;SDS011;15039;50.830;4.730;2023-03-15T01:41:55;1.20;;;1.10;;
27618;SDS011;15039;50.830;4.730;2023-03-15T01:44:21;2.15;;;1.30;;
27618;SDS011;15039;50.830;4.730;2023-03-15T01:46:48;1.63;;;1.20;;
27618;SDS011;15039;50.830;4.730;2023-03-15T01:49:15;1.80;;;0.90;;
27618;SDS011;15039;50.830;4.730;2023-03-15T01:52:00;0.93;;;0.80;;
27618;SDS011;15039;50.830;4.730;2023-03-15T01:54:30;1.35;;;0.80;;
27618;SDS011;15039;50.830;4.730;2023-03-15T01:59:32;1.88;;;1.20;;
27618;SDS011;15039;50.830;4.730;2023-03-15T02:02:02;2.63;;;0.90;;
27618;SDS011;15039;50.830;4.730;2023-03-15T02:04:30;1.17;;;0.82;;
27618;SDS011;15039;50.830;4.730;2023-03-15T02:07:01;1.17;;;1.05;;
27618;SDS011;15039;50.830;4.730;2023-03-15T02:09:43;1.20;;;1.00;;
27618;SDS011;15039;50.830;4.730;2023-03-15T02:12:18;1.45;;;1.15;;
27618;SDS011;15039;50.830;4.730;2023-03-15T02:14:44;1.85;;;1.10;;
27618;SDS011;15039;50.830;4.730;2023-03-15T02:17:10;2.78;;;1.00;;
27618;SDS011;15039;50.830;4.730;2023-03-15T02:19:56;2.60;;;1.40;;
27618;SDS011;15039;50.830;4.730;2023-03-15T02:25:11;1.63;;;1.20;;
27618;SDS011;15039;50.830;4.730;2023-03-15T02:27:50;2.17;;;1.23;;
27618;SDS011;15039;50.830;4.730;2023-03-15T02:30:16;1.63;;;1.45;;
27618;SDS011;15039;50.830;4.730;2023-03-15T02:32:42;2.75;;;1.80;;
27618;SDS011;15039;50.830;4.730;2023-03-15T02:35:08;2.50;;;1.70;;
27618;SDS011;15039;50.830;4.730;2023-03-15T02:37:34;3.92;;;1.75;;
27618;SDS011;15039;50.830;4.730;2023-03-15T02:39:59;3.88;;;2.47;;
27618;SDS011;15039;50.830;4.730;2023-03-15T02:42:25;2.97;;;1.98;;
27618;SDS011;15039;50.830;4.730;2023-03-15T02:44:52;2.85;;;1.95;;
27618;SDS011;15039;50.830;4.730;2023-03-15T02:47:19;2.25;;;1.83;;
27618;SDS011;15039;50.830;4.730;2023-03-15T02:49:51;4.68;;;2.38;;
27618;SDS011;15039;50.830;4.730;2023-03-15T02:52:17;2.45;;;2.10;;
27618;SDS011;15039;50.830;4.730;2023-03-15T02:54:43;3.22;;;2.70;;
27618;SDS011;15039;50.830;4.730;2023-03-15T02:57:10;4.78;;;3.20;;
27618;SDS011;15039;50.830;4.730;2023-03-15T02:59:36;3.70;;;2.88;;
27618;SDS011;15039;50.830;4.730;2023-03-15T03:02:04;4.35;;;3.08;;
27618;SDS011;15039;50.830;4.730;2023-03-15T03:04:30;4.93;;;2.92;;
27618;SDS011;15039;50.830;4.730;2023-03-15T03:06:55;3.17;;;2.88;;
27618;SDS011;15039;50.830;4.730;2023-03-15T03:09:21;5.22;;;3.40;;
27618;SDS011;15039;50.830;4.730;2023-03-15T03:11:48;5.47;;;3.17;;
27618;SDS011;15039;50.830;4.730;2023-03-15T03:14:13;4.35;;;3.22;;
27618;SDS011;15039;50.830;4.730;2023-03-15T03:16:39;3.88;;;3.47;;
27618;SDS011;15039;50.830;4.730;2023-03-15T03:19:06;4.20;;;3.38;;
27618;SDS011;15039;50.830;4.730;2023-03-15T03:21:32;6.32;;;3.63;;
27618;SDS011;15039;50.830;4.730;2023-03-15T03:23:58;5.15;;;3.25;;
27618;SDS011;15039;50.830;4.730;2023-03-15T03:26:24;6.10;;;4.13;;
27618;SDS011;15039;50.830;4.730;2023-03-15T03:28:52;5.57;;;3.65;;
27618;SDS011;15039;50.830;4.730;2023-03-15T03:31:20;7.25;;;3.63;;
27618;SDS011;15039;50.830;4.730;2023-03-15T03:33:47;4.70;;;3.58;;
27618;SDS011;15039;50.830;4.730;2023-03-15T03:36:13;5.53;;;3.80;;
27618;SDS011;15039;50.830;4.730;2023-03-15T03:38:40;6.57;;;4.15;;
27618;SDS011;15039;50.830;4.730;2023-03-15T03:41:10;5.28;;;3.88;;
27618;SDS011;15039;50.830;4.730;2023-03-15T03:43:37;7.20;;;3.85;;
27618;SDS011;15039;50.830;4.730;2023-03-15T03:46:03;5.53;;;3.72;;
27618;SDS011;15039;50.830;4.730;2023-03-15T03:48:29;6.53;;;3.80;;
27618;SDS011;15039;50.830;4.730;2023-03-15T03:50:55;9.90;;;4.03;;
27618;SDS011;15039;50.830;4.730;2023-03-15T03:53:21;8.57;;;4.80;;
27618;SDS011;15039;50.830;4.730;2023-03-15T03:55:47;6.88;;;4.05;;
27618;SDS011;15039;50.830;4.730;2023-03-15T03:58:13;7.80;;;4.53;;
27618;SDS011;15039;50.830;4.730;2023-03-15T04:00:39;8.23;;;4.53;;
27618;SDS011;15039;50.830;4.730;2023-03-15T04:03:08;9.65;;;4.63;;
27618;SDS011;15039;50.830;4.730;2023-03-15T04:05:34;8.60;;;4.57;;
27618;SDS011;15039;50.830;4.730;2023-03-15T04:08:00;7.60;;;4.10;;
27618;SDS011;15039;50.830;4.730;2023-03-15T04:10:26;5.75;;;4.35;;
27618;SDS011;15039;50.830;4.730;2023-03-15T04:12:52;9.98;;;4.70;;
27618;SDS011;15039;50.830;4.730;2023-03-15T04:15:19;7.00;;;4.75;;
27618;SDS011;15039;50.830;4.730;2023-03-15T04:17:46;8.23;;;4.57;;
27618;SDS011;15039;50.830;4.730;2023-03-15T04:20:24;6.75;;;4.57;;
27618;SDS011;15039;50.830;4.730;2023-03-15T04:22:51;6.72;;;4.57;;
27618;SDS011;15039;50.830;4.730;2023-03-15T04:25:17;7.63;;;4.63;;
27618;SDS011;15039;50.830;4.730;2023-03-15T04:27:44;9.35;;;4.90;;
27618;SDS011;15039;50.830;4.730;2023-03-15T04:30:10;7.65;;;4.78;;
27618;SDS011;15039;50.830;4.730;2023-03-15T04:32:36;8.52;;;5.13;;
27618;SDS011;15039;50.830;4.730;2023-03-15T04:35:01;10.75;;;5.22;;
27618;SDS011;15039;50.830;4.730;2023-03-15T04:37:28;7.63;;;4.82;;
27618;SDS011;15039;50.830;4.730;2023-03-15T04:39:56;7.85;;;5.60;;
27618;SDS011;15039;50.830;4.730;2023-03-15T04:42:22;7.95;;;5.13;;
27618;SDS011;15039;50.830;4.730;2023-03-15T04:44:50;6.40;;;5.15;;
27618;SDS011;15039;50.830;4.730;2023-03-15T04:47:16;9.75;;;5.60;;
27618;SDS011;15039;50.830;4.730;2023-03-15T04:49:41;6.43;;;4.97;;
27618;SDS011;15039;50.830;4.730;2023-03-15T04:52:07;9.55;;;5.40;;
27618;SDS011;15039;50.830;4.730;2023-03-15T04:54:33;5.53;;;4.93;;
27618;SDS011;15039;50.830;4.730;2023-03-15T04:56:58;6.60;;;5.03;;
27618;SDS011;15039;50.830;4.730;2023-03-15T04:59:25;13.13;;;5.10;;
27618;SDS011;15039;50.830;4.730;2023-03-15T05:01:51;7.88;;;5.07;;
27618;SDS011;15039;50.830;4.730;2023-03-15T05:04:16;10.45;;;5.03;;
27618;SDS011;15039;50.830;4.730;2023-03-15T05:06:42;8.15;;;5.53;;
27618;SDS011;15039;50.830;4.730;2023-03-15T05:09:07;9.18;;;5.40;;
27618;SDS011;15039;50.830;4.730;2023-03-15T05:11:33;9.88;;;5.78;;
27618;SDS011;15039;50.830;4.730;2023-03-15T05:13:59;8.80;;;5.32;;
27618;SDS011;15039;50.830;4.730;2023-03-15T05:16:25;9.85;;;5.22;;
27618;SDS011;15039;50.830;4.730;2023-03-15T05:18:51;7.20;;;5.25;;
27618;SDS011;15039;50.830;4.730;2023-03-15T05:21:17;8.43;;;5.25;;
27618;SDS011;15039;50.830;4.730;2023-03-15T05:23:43;8.45;;;6.28;;
27618;SDS011;15039;50.830;4.730;2023-03-15T05:26:09;9.13;;;6.07;;
27618;SDS011;15039;50.830;4.730;2023-03-15T05:28:34;13.10;;;6.30;;
27618;SDS011;15039;50.830;4.730;2023-03-15T05:31:00;8.48;;;5.75;;
27618;SDS011;15039;50.830;4.730;2023-03-15T05:33:26;8.77;;;5.97;;
27618;SDS011;15039;50.830;4.730;2023-03-15T05:35:52;14.82;;;8.30;;
27618;SDS011;15039;50.830;4.730;2023-03-15T05:38:20;11.20;;;6.57;;
27618;SDS011;15039;50.830;4.730;2023-03-15T05:40:50;12.90;;;6.00;;
27618;SDS011;15039;50.830;4.730;2023-03-15T05:43:16;9.82;;;6.20;;
27618;SDS011;15039;50.830;4.730;2023-03-15T05:45:41;10.45;;;6.43;;
27618;SDS011;15039;50.830;4.730;2023-03-15T05:48:08;11.90;;;6.50;;
27618;SDS011;15039;50.830;4.730;2023-03-15T05:50:34;12.85;;;6.72;;
27618;SDS011;15039;50.830;4.730;2023-03-15T05:52:59;11.45;;;6.10;;
27618;SDS011;15039;50.830;4.730;2023-03-15T05:55:25;11.30;;;6.20;;
27618;SDS011;15039;50.830;4.730;2023-03-15T05:57:51;11.70;;;6.78;;
27618;SDS011;15039;50.830;4.730;2023-03-15T06:00:16;7.63;;;6.20;;
27618;SDS011;15039;50.830;4.730;2023-03-15T06:02:43;9.90;;;7.07;;
27618;SDS011;15039;50.830;4.730;2023-03-15T06:05:10;12.73;;;6.82;;
27618;SDS011;15039;50.830;4.730;2023-03-15T06:07:36;9.55;;;7.15;;
27618;SDS011;15039;50.830;4.730;2023-03-15T06:10:02;12.38;;;7.40;;
27618;SDS011;15039;50.830;4.730;2023-03-15T06:12:28;9.20;;;6.90;;
27618;SDS011;15039;50.830;4.730;2023-03-15T06:14:54;13.40;;;6.75;;
27618;SDS011;15039;50.830;4.730;2023-03-15T06:17:20;11.68;;;7.28;;
27618;SDS011;15039;50.830;4.730;2023-03-15T06:19:45;16.60;;;7.30;;
27618;SDS011;15039;50.830;4.730;2023-03-15T06:22:11;12.07;;;7.68;;
27618;SDS011;15039;50.830;4.730;2023-03-15T06:24:37;16.00;;;7.45;;
27618;SDS011;15039;50.830;4.730;2023-03-15T06:27:03;15.73;;;7.97;;
27618;SDS011;15039;50.830;4.730;2023-03-15T06:29:28;12.70;;;7.10;;
27618;SDS011;15039;50.830;4.730;2023-03-15T06:31:54;14.30;;;8.05;;
27618;SDS011;15039;50.830;4.730;2023-03-15T06:34:20;12.32;;;7.00;;
27618;SDS011;15039;50.830;4.730;2023-03-15T06:36:45;14.00;;;7.45;;
27618;SDS011;15039;50.830;4.730;2023-03-15T06:39:11;17.52;;;8.73;;
27618;SDS011;15039;50.830;4.730;2023-03-15T06:41:38;15.38;;;8.38;;
27618;SDS011;15039;50.830;4.730;2023-03-15T06:44:05;15.52;;;8.38;;
27618;SDS011;15039;50.830;4.730;2023-03-15T06:46:31;16.85;;;8.73;;
27618;SDS011;15039;50.830;4.730;2023-03-15T06:48:57;14.18;;;7.75;;
27618;SDS011;15039;50.830;4.730;2023-03-15T06:51:23;16.65;;;8.40;;
27618;SDS011;15039;50.830;4.730;2023-03-15T06:53:49;13.80;;;8.60;;
27618;SDS011;15039;50.830;4.730;2023-03-15T06:56:15;14.20;;;8.10;;
27618;SDS011;15039;50.830;4.730;2023-03-15T06:58:40;14.52;;;8.27;;
27618;SDS011;15039;50.830;4.730;2023-03-15T07:01:06;14.45;;;9.05;;
27618;SDS011;15039;50.830;4.730;2023-03-15T07:03:31;16.52;;;8.80;;
27618;SDS011;15039;50.830;4.730;2023-03-15T07:05:57;16.52;;;9.90;;
27618;SDS011;15039;50.830;4.730;2023-03-15T07:08:23;11.95;;;8.55;;
27618;SDS011;15039;50.830;4.730;2023-03-15T07:10:49;15.63;;;8.15;;
27618;SDS011;15039;50.830;4.730;2023-03-15T07:13:16;14.40;;;8.90;;
27618;SDS011;15039;50.830;4.730;2023-03-15T07:15:42;19.23;;;10.95;;
27618;SDS011;15039;50.830;4.730;2023-03-15T07:18:08;14.95;;;9.10;;
27618;SDS011;15039;50.830;4.730;2023-03-15T07:20:34;14.63;;;8.07;;
27618;SDS011;15039;50.830;4.730;2023-03-15T07:23:00;18.00;;;9.30;;
27618;SDS011;15039;50.830;4.730;2023-03-15T07:25:25;18.00;;;9.77;;
27618;SDS011;15039;50.830;4.730;2023-03-15T07:27:52;15.52;;;9.75;;
27618;SDS011;15039;50.830;4.730;2023-03-15T07:30:18;14.05;;;9.13;;
27618;SDS011;15039;50.830;4.730;2023-03-15T07:32:45;15.82;;;10.20;;
27618;SDS011;15039;50.830;4.730;2023-03-15T07:35:11;13.52;;;9.75;;
27618;SDS011;15039;50.830;4.730;2023-03-15T07:37:37;15.95;;;9.48;;
27618;SDS011;15039;50.830;4.730;2023-03-15T07:40:03;12.63;;;8.90;;
27618;SDS011;15039;50.830;4.730;2023-03-15T07:42:34;15.63;;;9.50;;
27618;SDS011;15039;50.830;4.730;2023-03-15T07:45:00;12.57;;;8.82;;
27618;SDS011;15039;50.830;4.730;2023-03-15T07:47:26;16.70;;;9.35;;
27618;SDS011;15039;50.830;4.730;2023-03-15T07:49:54;13.73;;;8.68;;
27618;SDS011;15039;50.830;4.730;2023-03-15T07:52:20;13.77;;;8.98;;
27618;SDS011;15039;50.830;4.730;2023-03-15T07:54:46;14.73;;;8.65;;
27618;SDS011;15039;50.830;4.730;2023-03-15T07:57:12;13.30;;;8.88;;
27618;SDS011;15039;50.830;4.730;2023-03-15T07:59:37;15.13;;;9.00;;
27618;SDS011;15039;50.830;4.730;2023-03-15T08:02:03;16.17;;;9.45;;
27618;SDS011;15039;50.830;4.730;2023-03-15T08:04:29;21.80;;;9.63;;
27618;SDS011;15039;50.830;4.730;2023-03-15T08:06:55;14.60;;;9.65;;
27618;SDS011;15039;50.830;4.730;2023-03-15T08:09:23;14.27;;;8.55;;
27618;SDS011;15039;50.830;4.730;2023-03-15T08:11:49;16.13;;;9.43;;
27618;SDS011;15039;50.830;4.730;2023-03-15T08:14:15;13.48;;;9.23;;
27618;SDS011;15039;50.830;4.730;2023-03-15T08:16:40;13.18;;;9.38;;
27618;SDS011;15039;50.830;4.730;2023-03-15T08:19:06;16.65;;;8.98;;
27618;SDS011;15039;50.830;4.730;2023-03-15T08:21:31;13.43;;;8.48;;
27618;SDS011;15039;50.830;4.730;2023-03-15T08:23:58;13.65;;;8.98;;
27618;SDS011;15039;50.830;4.730;2023-03-15T08:26:24;13.68;;;8.68;;
27618;SDS011;15039;50.830;4.730;2023-03-15T08:28:50;13.93;;;8.27;;
27618;SDS011;15039;50.830;4.730;2023-03-15T08:31:15;7.65;;;6.82;;
27618;SDS011;15039;50.830;4.730;2023-03-15T08:33:41;9.27;;;6.70;;
27618;SDS011;15039;50.830;4.730;2023-03-15T08:36:07;10.05;;;6.93;;
27618;SDS011;15039;50.830;4.730;2023-03-15T08:38:33;9.93;;;7.22;;
27618;SDS011;15039;50.830;4.730;2023-03-15T08:41:00;9.00;;;6.97;;
27618;SDS011;15039;50.830;4.730;2023-03-15T08:43:26;7.97;;;6.45;;
27618;SDS011;15039;50.830;4.730;2023-03-15T08:45:52;9.88;;;5.78;;
27618;SDS011;15039;50.830;4.730;2023-03-15T08:48:18;7.57;;;6.32;;
27618;SDS011;15039;50.830;4.730;2023-03-15T08:50:44;8.48;;;5.35;;
27618;SDS011;15039;50.830;4.730;2023-03-15T08:53:10;5.80;;;4.55;;
27618;SDS011;15039;50.830;4.730;2023-03-15T08:55:36;5.75;;;4.30;;
27618;SDS011;15039;50.830;4.730;2023-03-15T08:58:02;5.93;;;4.28;;
27618;SDS011;15039;50.830;4.730;2023-03-15T09:00:28;4.20;;;3.80;;
27618;SDS011;15039;50.830;4.730;2023-03-15T09:02:55;5.38;;;3.90;;
27618;SDS011;15039;50.830;4.730;2023-03-15T09:05:21;6.40;;;2.58;;
27618;SDS011;15039;50.830;4.730;2023-03-15T09:07:48;3.70;;;2.35;;
27618;SDS011;15039;50.830;4.730;2023-03-15T09:10:17;3.97;;;2.42;;
27618;SDS011;15039;50.830;4.730;2023-03-15T09:12:44;3.03;;;2.25;;
27618;SDS011;15039;50.830;4.730;2023-03-15T09:15:11;3.35;;;2.55;;
27618;SDS011;15039;50.830;4.730;2023-03-15T09:17:38;2.85;;;2.50;;
27618;SDS011;15039;50.830;4.730;2023-03-15T09:20:05;4.15;;;2.47;;
27618;SDS011;15039;50.830;4.730;2023-03-15T09:22:35;3.65;;;2.65;;
27618;SDS011;15039;50.830;4.730;2023-03-15T09:25:01;2.70;;;2.30;;
27618;SDS011;15039;50.830;4.730;2023-03-15T09:27:28;4.13;;;1.77;;
27618;SDS011;15039;50.830;4.730;2023-03-15T09:29:55;3.53;;;2.15;;
27618;SDS011;15039;50.830;4.730;2023-03-15T09:32:21;4.18;;;2.08;;
27618;SDS011;15039;50.830;4.730;2023-03-15T09:34:47;4.25;;;2.42;;
27618;SDS011;15039;50.830;4.730;2023-03-15T09:37:13;6.72;;;2.75;;
27618;SDS011;15039;50.830;4.730;2023-03-15T09:39:39;3.20;;;2.15;;
27618;SDS011;15039;50.830;4.730;2023-03-15T09:42:07;4.28;;;2.10;;
27618;SDS011;15039;50.830;4.730;2023-03-15T09:44:47;4.93;;;2.03;;
27618;SDS011;15039;50.830;4.730;2023-03-15T09:47:31;4.55;;;2.00;;
27618;SDS011;15039;50.830;4.730;2023-03-15T09:50:14;4.40;;;2.22;;
27618;SDS011;15039;50.830;4.730;2023-03-15T09:52:50;3.67;;;2.20;;
27618;SDS011;15039;50.830;4.730;2023-03-15T09:55:26;4.68;;;2.05;;
27618;SDS011;15039;50.830;4.730;2023-03-15T09:58:00;3.60;;;2.00;;
27618;SDS011;15039;50.830;4.730;2023-03-15T10:00:53;2.70;;;2.42;;
27618;SDS011;15039;50.830;4.730;2023-03-15T10:06:13;4.82;;;2.00;;
27618;SDS011;15039;50.830;4.730;2023-03-15T10:08:50;3.58;;;2.03;;
27618;SDS011;15039;50.830;4.730;2023-03-15T10:11:33;4.60;;;2.25;;
27618;SDS011;15039;50.830;4.730;2023-03-15T10:17:02;2.10;;;1.90;;
27618;SDS011;15039;50.830;4.730;2023-03-15T10:19:39;2.40;;;1.63;;
27618;SDS011;15039;50.830;4.730;2023-03-15T10:27:53;2.17;;;1.88;;
27618;SDS011;15039;50.830;4.730;2023-03-15T10:33:01;3.67;;;1.90;;
27618;SDS011;15039;50.830;4.730;2023-03-15T10:35:45;2.63;;;2.00;;
27618;SDS011;15039;50.830;4.730;2023-03-15T10:38:18;2.63;;;1.85;;
27618;SDS011;15039;50.830;4.730;2023-03-15T10:40:55;4.35;;;1.80;;
27618;SDS011;15039;50.830;4.730;2023-03-15T10:43:26;2.30;;;1.85;;
27618;SDS011;15039;50.830;4.730;2023-03-15T10:48:31;2.25;;;1.60;;
27618;SDS011;15039;50.830;4.730;2023-03-15T10:51:14;2.75;;;1.45;;
27618;SDS011;15039;50.830;4.730;2023-03-15T10:56:24;1.60;;;1.50;;
27618;SDS011;15039;50.830;4.730;2023-03-15T10:58:53;1.63;;;1.40;;
27618;SDS011;15039;50.830;4.730;2023-03-15T11:01:27;3.05;;;1.48;;
27618;SDS011;15039;50.830;4.730;2023-03-15T11:06:45;2.70;;;1.30;;
27618;SDS011;15039;50.830;4.730;2023-03-15T11:09:15;2.88;;;1.20;;
27618;SDS011;15039;50.830;4.730;2023-03-15T11:11:58;1.33;;;1.23;;
27618;SDS011;15039;50.830;4.730;2023-03-15T11:14:36;1.10;;;0.90;;
27618;SDS011;15039;50.830;4.730;2023-03-15T11:17:05;2.45;;;1.10;;
27618;SDS011;15039;50.830;4.730;2023-03-15T11:19:39;3.10;;;1.30;;
27618;SDS011;15039;50.830;4.730;2023-03-15T11:22:10;1.83;;;1.20;;
27618;SDS011;15039;50.830;4.730;2023-03-15T11:24:37;3.50;;;1.40;;
27618;SDS011;15039;50.830;4.730;2023-03-15T11:27:08;3.45;;;1.10;;
27618;SDS011;15039;50.830;4.730;2023-03-15T11:29:38;3.05;;;1.00;;
27618;SDS011;15039;50.830;4.730;2023-03-15T11:32:21;2.65;;;0.90;;
27618;SDS011;15039;50.830;4.730;2023-03-15T11:35:02;1.77;;;1.10;;
27618;SDS011;15039;50.830;4.730;2023-03-15T11:37:36;1.30;;;0.90;;
27618;SDS011;15039;50.830;4.730;2023-03-15T11:40:16;1.38;;;0.90;;
27618;SDS011;15039;50.830;4.730;2023-03-15T11:45:26;0.90;;;0.90;;
27618;SDS011;15039;50.830;4.730;2023-03-15T11:48:07;1.02;;;0.90;;
27618;SDS011;15039;50.830;4.730;2023-03-15T11:50:39;1.73;;;0.90;;
27618;SDS011;15039;50.830;4.730;2023-03-15T11:53:04;5.05;;;1.70;;
27618;SDS011;15039;50.830;4.730;2023-03-15T11:55:31;1.38;;;0.98;;
27618;SDS011;15039;50.830;4.730;2023-03-15T11:57:57;2.10;;;0.93;;
27618;SDS011;15039;50.830;4.730;2023-03-15T12:00:59;2.03;;;1.00;;
27618;SDS011;15039;50.830;4.730;2023-03-15T12:08:43;1.17;;;0.80;;
27618;SDS011;15039;50.830;4.730;2023-03-15T12:11:55;2.22;;;1.15;;
27618;SDS011;15039;50.830;4.730;2023-03-15T12:16:28;1.50;;;0.90;;
27618;SDS011;15039;50.830;4.730;2023-03-15T12:18:58;0.93;;;0.80;;
27618;SDS011;15039;50.830;4.730;2023-03-15T12:21:33;1.40;;;1.08;;
27618;SDS011;15039;50.830;4.730;2023-03-15T12:24:14;2.22;;;1.08;;
27618;SDS011;15039;50.830;4.730;2023-03-15T12:27:00;2.72;;;1.27;;
27618;SDS011;15039;50.830;4.730;2023-03-15T12:29:26;1.20;;;1.00;;
27618;SDS011;15039;50.830;4.730;2023-03-15T12:31:55;1.25;;;0.90;;
27618;SDS011;15039;50.830;4.730;2023-03-15T12:34:42;1.95;;;0.80;;
27618;SDS011;15039;50.830;4.730;2023-03-15T12:37:14;1.48;;;1.10;;
27618;SDS011;15039;50.830;4.730;2023-03-15T12:39:44;1.27;;;1.10;;
27618;SDS011;15039;50.830;4.730;2023-03-15T12:42:13;3.22;;;1.05;;
27618;SDS011;15039;50.830;4.730;2023-03-15T12:53:20;2.08;;;0.80;;
27618;SDS011;15039;50.830;4.730;2023-03-15T12:55:46;2.28;;;1.00;;
27618;SDS011;15039;50.830;4.730;2023-03-15T12:58:13;1.50;;;1.15;;
27618;SDS011;15039;50.830;4.730;2023-03-15T13:00:42;3.47;;;1.15;;
27618;SDS011;15039;50.830;4.730;2023-03-15T13:03:13;1.85;;;0.90;;
27618;SDS011;15039;50.830;4.730;2023-03-15T13:10:46;1.65;;;0.90;;
27618;SDS011;15039;50.830;4.730;2023-03-15T13:13:47;3.25;;;1.40;;
27618;SDS011;15039;50.830;4.730;2023-03-15T13:16:35;1.30;;;0.98;;
27618;SDS011;15039;50.830;4.730;2023-03-15T13:21:50;4.22;;;1.10;;
27618;SDS011;15039;50.830;4.730;2023-03-15T13:27:18;4.35;;;1.30;;
27618;SDS011;15039;50.830;4.730;2023-03-15T13:29:47;2.20;;;1.27;;
27618;SDS011;15039;50.830;4.730;2023-03-15T13:32:15;1.88;;;1.10;;
27618;SDS011;15039;50.830;4.730;2023-03-15T13:34:45;1.55;;;0.95;;
27618;SDS011;15039;50.830;4.730;2023-03-15T13:37:16;1.58;;;1.08;;
27618;SDS011;15039;50.830;4.730;2023-03-15T13:40:19;2.20;;;1.00;;
27618;SDS011;15039;50.830;4.730;2023-03-15T13:42:39;1.52;;;0.90;;
27618;SDS011;15039;50.830;4.730;2023-03-15T13:47:40;2.60;;;1.70;;
27618;SDS011;15039;50.830;4.730;2023-03-15T13:50:11;2.50;;;1.40;;
27618;SDS011;15039;50.830;4.730;2023-03-15T13:52:40;1.58;;;1.10;;
27618;SDS011;15039;50.830;4.730;2023-03-15T13:55:06;4.03;;;1.30;;
27618;SDS011;15039;50.830;4.730;2023-03-15T13:57:33;1.65;;;1.27;;
27618;SDS011;15039;50.830;4.730;2023-03-15T14:00:01;2.20;;;1.10;;
27618;SDS011;15039;50.830;4.730;2023-03-15T14:05:44;1.30;;;0.90;;
27618;SDS011;15039;50.830;4.730;2023-03-15T14:08:14;1.25;;;0.95;;
27618;SDS011;15039;50.830;4.730;2023-03-15T14:10:42;5.10;;;1.40;;
27618;SDS011;15039;50.830;4.730;2023-03-15T14:13:24;1.98;;;1.00;;
27618;SDS011;15039;50.830;4.730;2023-03-15T14:16:01;2.42;;;1.30;;
27618;SDS011;15039;50.830;4.730;2023-03-15T14:18:32;2.20;;;1.13;;
27618;SDS011;15039;50.830;4.730;2023-03-15T14:21:05;0.90;;;0.90;;
27618;SDS011;15039;50.830;4.730;2023-03-15T14:23:35;1.15;;;0.95;;
27618;SDS011;15039;50.830;4.730;2023-03-15T14:26:11;1.08;;;0.80;;
27618;SDS011;15039;50.830;4.730;2023-03-15T14:28:51;2.15;;;0.93;;
27618;SDS011;15039;50.830;4.730;2023-03-15T14:31:24;3.72;;;0.73;;
27618;SDS011;15039;50.830;4.730;2023-03-15T14:33:55;2.38;;;0.90;;
27618;SDS011;15039;50.830;4.730;2023-03-15T14:36:58;2.10;;;0.75;;
27618;SDS011;15039;50.830;4.730;2023-03-15T14:39:25;1.15;;;0.70;;
27618;SDS011;15039;50.830;4.730;2023-03-15T14:41:53;1.73;;;0.70;;
27618;SDS011;15039;50.830;4.730;2023-03-15T14:44:19;0.60;;;0.60;;
27618;SDS011;15039;50.830;4.730;2023-03-15T14:46:45;1.88;;;0.65;;
27618;SDS011;15039;50.830;4.730;2023-03-15T14:49:18;0.68;;;0.65;;
27618;SDS011;15039;50.830;4.730;2023-03-15T14:51:51;1.23;;;0.43;;
27618;SDS011;15039;50.830;4.730;2023-03-15T14:54:19;0.47;;;0.47;;
27618;SDS011;15039;50.830;4.730;2023-03-15T14:56:45;0.60;;;0.55;;
27618;SDS011;15039;50.830;4.730;2023-03-15T14:59:11;1.08;;;0.80;;
27618;SDS011;15039;50.830;4.730;2023-03-15T15:01:37;1.05;;;0.60;;
27618;SDS011;15039;50.830;4.730;2023-03-15T15:04:04;1.38;;;0.82;;
27618;SDS011;15039;50.830;4.730;2023-03-15T15:06:30;1.40;;;1.00;;
27618;SDS011;15039;50.830;4.730;2023-03-15T15:08:56;0.95;;;0.65;;
27618;SDS011;15039;50.830;4.730;2023-03-15T15:11:24;0.90;;;0.80;;
27618;SDS011;15039;50.830;4.730;2023-03-15T15:13:50;0.77;;;0.70;;
27618;SDS011;15039;50.830;4.730;2023-03-15T15:16:17;2.05;;;0.73;;
27618;SDS011;15039;50.830;4.730;2023-03-15T15:18:42;1.98;;;0.55;;
27618;SDS011;15039;50.830;4.730;2023-03-15T15:21:18;1.75;;;0.60;;
27618;SDS011;15039;50.830;4.730;2023-03-15T15:23:55;1.42;;;0.85;;
27618;SDS011;15039;50.830;4.730;2023-03-15T15:26:23;0.85;;;0.70;;
27618;SDS011;15039;50.830;4.730;2023-03-15T15:28:51;1.30;;;0.80;;
27618;SDS011;15039;50.830;4.730;2023-03-15T15:31:18;3.10;;;0.80;;
27618;SDS011;15039;50.830;4.730;2023-03-15T15:33:50;1.17;;;0.80;;
27618;SDS011;15039;50.830;4.730;2023-03-15T15:36:21;1.67;;;0.85;;
27618;SDS011;15039;50.830;4.730;2023-03-15T15:38:47;3.60;;;0.75;;
27618;SDS011;15039;50.830;4.730;2023-03-15T15:41:23;3.72;;;0.73;;
27618;SDS011;15039;50.830;4.730;2023-03-15T15:43:51;1.52;;;0.98;;
27618;SDS011;15039;50.830;4.730;2023-03-15T15:46:17;2.03;;;1.05;;
27618;SDS011;15039;50.830;4.730;2023-03-15T15:48:43;1.38;;;0.90;;
27618;SDS011;15039;50.830;4.730;2023-03-15T15:51:13;1.42;;;0.68;;
27618;SDS011;15039;50.830;4.730;2023-03-15T15:53:43;1.10;;;0.68;;
27618;SDS011;15039;50.830;4.730;2023-03-15T15:56:09;1.05;;;0.80;;
27618;SDS011;15039;50.830;4.730;2023-03-15T15:58:41;1.42;;;0.93;;
27618;SDS011;15039;50.830;4.730;2023-03-15T16:01:12;1.48;;;0.90;;